sensor_id;sensor_type;location;lat;lon;timestamp;pressure;altitude;pressure_sealevel;temperature;humidity
22259;BME280;11298;46.034;14.496;2022-08-25T00:00:25;98295.38;;;23.68;70.00
22259;BME280;11298;46.034;14.496;2022-08-25T00:02:54;98301.41;;;23.52;70.71
22259;BME280;11298;46.034;14.496;2022-08-25T00:05:31;98299.75;;;23.51;71.24
22259;BME280;11298;46.034;14.496;2022-08-25T00:08:03;98302.81;;;23.49;71.53
22259;BME280;11298;46.034;14.496;2022-08-25T00:10:39;98292.53;;;23.50;71.66
22259;BME280;11298;46.034;14.496;2022-08-25T00:13:07;98298.34;;;23.53;71.59
22259;BME280;11298;46.034;14.496;2022-08-25T00:15:36;98296.44;;;23.49;71.81
22259;BME280;11298;46.034;14.496;2022-08-25T00:18:06;98295.03;;;23.51;71.71
22259;BME280;11298;46.034;14.496;2022-08-25T00:20:46;98295.03;;;23.51;72.05
22259;BME280;11298;46.034;14.496;2022-08-25T00:23:22;98285.06;;;23.50;72.27
22259;BME280;11298;46.034;14.496;2022-08-25T00:25:50;98286.16;;;23.54;71.85
22259;BME280;11298;46.034;14.496;2022-08-25T00:28:19;98287.53;;;23.52;71.96
22259;BME280;11298;46.034;14.496;2022-08-25T00:30:47;98292.53;;;23.50;71.64
22259;BME280;11298;46.034;14.496;2022-08-25T00:33:17;98281.47;;;23.50;72.06
22259;BME280;11298;46.034;14.496;2022-08-25T00:35:47;98280.03;;;23.52;71.95
22259;BME280;11298;46.034;14.496;2022-08-25T00:38:18;98278.41;;;23.51;71.66
22259;BME280;11298;46.034;14.496;2022-08-25T00:40:51;98273.44;;;23.48;71.97
22259;BME280;11298;46.034;14.496;2022-08-25T00:46:10;98279.88;;;23.44;71.80
22259;BME280;11298;46.034;14.496;2022-08-25T00:48:41;98272.69;;;23.43;71.85
22259;BME280;11298;46.034;14.496;2022-08-25T00:51:18;98274.63;;;23.42;71.63
22259;BME280;11298;46.034;14.496;2022-08-25T00:53:50;98274.63;;;23.42;71.61
22259;BME280;11298;46.034;14.496;2022-08-25T00:56:19;98278.56;;;23.36;71.76
22259;BME280;11298;46.034;14.496;2022-08-25T00:58:49;98275.03;;;23.30;72.16
22259;BME280;11298;46.034;14.496;2022-08-25T01:01:18;98266.72;;;23.30;72.46
22259;BME280;11298;46.034;14.496;2022-08-25T01:03:47;98259.28;;;23.26;72.24
22259;BME280;11298;46.034;14.496;2022-08-25T01:06:16;98256.06;;;23.19;71.94
22259;BME280;11298;46.034;14.496;2022-08-25T01:08:43;98263.84;;;23.17;71.69
22259;BME280;11298;46.034;14.496;2022-08-25T01:11:13;98260.06;;;23.08;71.92
22259;BME280;11298;46.034;14.496;2022-08-25T01:13:43;98262.34;;;23.00;72.57
22259;BME280;11298;46.034;14.496;2022-08-25T01:16:16;98256.06;;;22.90;73.25
22259;BME280;11298;46.034;14.496;2022-08-25T01:18:53;98255.88;;;22.86;72.75
22259;BME280;11298;46.034;14.496;2022-08-25T01:21:28;98257.56;;;22.82;72.42
22259;BME280;11298;46.034;14.496;2022-08-25T01:23:59;98263.13;;;22.77;72.36
22259;BME280;11298;46.034;14.496;2022-08-25T01:26:32;98256.50;;;22.73;72.51
22259;BME280;11298;46.034;14.496;2022-08-25T01:29:04;98248.25;;;22.68;72.50
22259;BME280;11298;46.034;14.496;2022-08-25T01:31:58;98251.06;;;22.63;72.57
22259;BME280;11298;46.034;14.496;2022-08-25T01:34:45;98251.69;;;22.55;72.82
22259;BME280;11298;46.034;14.496;2022-08-25T01:37:14;98250.34;;;22.52;72.86
22259;BME280;11298;46.034;14.496;2022-08-25T01:39:42;98251.25;;;22.43;73.02
22259;BME280;11298;46.034;14.496;2022-08-25T01:44:46;98247.44;;;22.33;75.32
22259;BME280;11298;46.034;14.496;2022-08-25T01:47:15;98253.84;;;22.29;74.68
22259;BME280;11298;46.034;14.496;2022-08-25T01:49:45;98248.03;;;22.30;74.17
22259;BME280;11298;46.034;14.496;2022-08-25T01:52:33;98249.69;;;22.31;74.14
22259;BME280;11298;46.034;14.496;2022-08-25T01:55:04;98246.66;;;22.28;74.05
22259;BME280;11298;46.034;14.496;2022-08-25T01:57:36;98238.94;;;22.25;74.07
22259;BME280;11298;46.034;14.496;2022-08-25T02:00:10;98245.03;;;22.22;74.00
22259;BME280;11298;46.034;14.496;2022-08-25T02:02:41;98234.56;;;22.19;73.94
22259;BME280;11298;46.034;14.496;2022-08-25T02:05:12;98236.81;;;22.17;73.88
22259;BME280;11298;46.034;14.496;2022-08-25T02:07:46;98224.94;;;22.11;74.20
22259;BME280;11298;46.034;14.496;2022-08-25T02:10:17;98227.19;;;22.09;74.62
22259;BME280;11298;46.034;14.496;2022-08-25T02:12:45;98225.28;;;22.04;74.81
22259;BME280;11298;46.034;14.496;2022-08-25T02:15:12;98229.44;;;21.97;75.33
22259;BME280;11298;46.034;14.496;2022-08-25T02:17:40;98222.53;;;21.94;75.65
22259;BME280;11298;46.034;14.496;2022-08-25T02:20:09;98229.47;;;21.92;75.80
22259;BME280;11298;46.034;14.496;2022-08-25T02:22:44;98232.81;;;21.89;75.46
22259;BME280;11298;46.034;14.496;2022-08-25T02:25:23;98227.31;;;21.84;76.32
22259;BME280;11298;46.034;14.496;2022-08-25T02:27:50;98234.25;;;21.81;76.68
22259;BME280;11298;46.034;14.496;2022-08-25T02:30:17;98226.00;;;21.76;76.92
22259;BME280;11298;46.034;14.496;2022-08-25T02:32:47;98226.81;;;21.77;76.46
22259;BME280;11298;46.034;14.496;2022-08-25T02:35:16;98225.75;;;21.72;76.34
22259;BME280;11298;46.034;14.496;2022-08-25T02:37:43;98228.53;;;21.67;76.14
22259;BME280;11298;46.034;14.496;2022-08-25T02:40:10;98226.88;;;21.66;75.94
22259;BME280;11298;46.034;14.496;2022-08-25T02:42:40;98231.84;;;21.64;75.63
22259;BME280;11298;46.034;14.496;2022-08-25T02:45:08;98229.91;;;21.65;75.82
22259;BME280;11298;46.034;14.496;2022-08-25T02:47:36;98226.63;;;21.58;76.24
22259;BME280;11298;46.034;14.496;2022-08-25T02:50:07;98226.06;;;21.61;76.31
22259;BME280;11298;46.034;14.496;2022-08-25T02:52:36;98218.34;;;21.58;76.02
22259;BME280;11298;46.034;14.496;2022-08-25T02:55:08;98225.28;;;21.55;76.34
22259;BME280;11298;46.034;14.496;2022-08-25T02:57:39;98223.06;;;21.52;76.45
22259;BME280;11298;46.034;14.496;2022-08-25T03:00:11;98221.69;;;21.50;76.79
22259;BME280;11298;46.034;14.496;2022-08-25T03:02:40;98223.94;;;21.48;76.92
22259;BME280;11298;46.034;14.496;2022-08-25T03:05:11;98222.28;;;21.47;77.48
22259;BME280;11298;46.034;14.496;2022-08-25T03:07:42;98214.03;;;21.42;77.79
22259;BME280;11298;46.034;14.496;2022-08-25T03:10:17;98222.59;;;21.40;77.31
22259;BME280;11298;46.034;14.496;2022-08-25T03:12:48;98216.00;;;21.36;76.72
22259;BME280;11298;46.034;14.496;2022-08-25T03:15:16;98211.56;;;21.35;77.20
22259;BME280;11298;46.034;14.496;2022-08-25T03:17:46;98213.25;;;21.31;77.85
22259;BME280;11298;46.034;14.496;2022-08-25T03:20:17;98211.59;;;21.25;78.33
22259;BME280;11298;46.034;14.496;2022-08-25T03:22:47;98210.25;;;21.22;77.86
22259;BME280;11298;46.034;14.496;2022-08-25T03:25:19;98203.06;;;21.21;77.41
22259;BME280;11298;46.034;14.496;2022-08-25T03:28:07;98205.25;;;21.24;77.52
22259;BME280;11298;46.034;14.496;2022-08-25T03:30:37;98207.19;;;21.24;77.37
22259;BME280;11298;46.034;14.496;2022-08-25T03:33:06;98206.66;;;21.22;77.27
22259;BME280;11298;46.034;14.496;2022-08-25T03:35:35;98203.59;;;21.18;77.50
22259;BME280;11298;46.034;14.496;2022-08-25T03:38:04;98201.38;;;21.20;77.32
22259;BME280;11298;46.034;14.496;2022-08-25T03:40:34;98201.16;;;21.12;77.58
22259;BME280;11298;46.034;14.496;2022-08-25T03:43:04;98197.84;;;21.10;77.81
22259;BME280;11298;46.034;14.496;2022-08-25T03:45:33;98188.75;;;21.09;77.72
22259;BME280;11298;46.034;14.496;2022-08-25T03:48:03;98186.81;;;21.04;78.49
22259;BME280;11298;46.034;14.496;2022-08-25T03:50:35;98197.91;;;20.94;79.27
22259;BME280;11298;46.034;14.496;2022-08-25T03:53:04;98195.13;;;20.99;79.67
22259;BME280;11298;46.034;14.496;2022-08-25T03:55:39;98193.19;;;21.05;79.67
22259;BME280;11298;46.034;14.496;2022-08-25T03:58:06;98198.72;;;21.00;80.12
22259;BME280;11298;46.034;14.496;2022-08-25T04:00:38;98192.34;;;20.99;80.33
22259;BME280;11298;46.034;14.496;2022-08-25T04:03:10;98193.47;;;20.98;80.63
22259;BME280;11298;46.034;14.496;2022-08-25T04:05:37;98194.88;;;20.91;81.38
22259;BME280;11298;46.034;14.496;2022-08-25T04:08:07;98189.63;;;20.89;81.42
22259;BME280;11298;46.034;14.496;2022-08-25T04:10:36;98192.41;;;20.84;81.21
22259;BME280;11298;46.034;14.496;2022-08-25T04:13:04;98193.00;;;20.71;81.50
22259;BME280;11298;46.034;14.496;2022-08-25T04:15:33;98191.88;;;20.77;81.71
22259;BME280;11298;46.034;14.496;2022-08-25T04:18:02;98198.75;;;20.85;81.36
22259;BME280;11298;46.034;14.496;2022-08-25T04:20:32;98193.22;;;20.80;81.35
22259;BME280;11298;46.034;14.496;2022-08-25T04:23:02;98197.66;;;20.81;81.73
22259;BME280;11298;46.034;14.496;2022-08-25T04:25:33;98198.78;;;20.74;81.83
22259;BME280;11298;46.034;14.496;2022-08-25T04:28:02;98205.69;;;20.67;82.31
22259;BME280;11298;46.034;14.496;2022-08-25T04:30:31;98211.22;;;20.72;82.06
22259;BME280;11298;46.034;14.496;2022-08-25T04:33:02;98196.03;;;20.74;81.93
22259;BME280;11298;46.034;14.496;2022-08-25T04:35:38;98197.44;;;20.67;81.77
22259;BME280;11298;46.034;14.496;2022-08-25T04:38:06;98201.84;;;20.58;82.58
22259;BME280;11298;46.034;14.496;2022-08-25T04:40:34;98210.13;;;20.68;82.92
22259;BME280;11298;46.034;14.496;2022-08-25T04:43:01;98202.88;;;20.82;82.06
22259;BME280;11298;46.034;14.496;2022-08-25T04:45:38;98213.63;;;20.89;81.79
22259;BME280;11298;46.034;14.496;2022-08-25T04:48:07;98206.19;;;20.94;81.18
22259;BME280;11298;46.034;14.496;2022-08-25T04:50:38;98201.75;;;20.98;81.45
22259;BME280;11298;46.034;14.496;2022-08-25T04:53:09;98208.09;;;20.99;81.08
22259;BME280;11298;46.034;14.496;2022-08-25T04:55:45;98209.47;;;21.01;81.34
22259;BME280;11298;46.034;14.496;2022-08-25T04:58:15;98210.31;;;21.02;81.52
22259;BME280;11298;46.034;14.496;2022-08-25T05:00:51;98203.13;;;20.96;81.65
22259;BME280;11298;46.034;14.496;2022-08-25T05:03:21;98214.44;;;21.04;81.53
22259;BME280;11298;46.034;14.496;2022-08-25T05:05:52;98211.59;;;21.20;80.56
22259;BME280;11298;46.034;14.496;2022-08-25T05:08:25;98212.16;;;21.27;80.43
22259;BME280;11298;46.034;14.496;2022-08-25T05:10:54;98214.38;;;21.25;79.93
22259;BME280;11298;46.034;14.496;2022-08-25T05:13:26;98212.72;;;21.24;80.16
22259;BME280;11298;46.034;14.496;2022-08-25T05:15:58;98213.59;;;21.04;81.00
22259;BME280;11298;46.034;14.496;2022-08-25T05:18:30;98213.88;;;21.07;81.68
22259;BME280;11298;46.034;14.496;2022-08-25T05:21:09;98219.63;;;21.16;81.22
22259;BME280;11298;46.034;14.496;2022-08-25T05:23:39;98222.09;;;21.18;81.11
22259;BME280;11298;46.034;14.496;2022-08-25T05:26:13;98215.19;;;21.25;81.09
22259;BME280;11298;46.034;14.496;2022-08-25T05:28:50;98218.72;;;21.41;80.86
22259;BME280;11298;46.034;14.496;2022-08-25T05:31:18;98218.66;;;21.51;80.88
22259;BME280;11298;46.034;14.496;2022-08-25T05:33:48;98217.25;;;21.59;80.08
22259;BME280;11298;46.034;14.496;2022-08-25T05:36:25;98224.69;;;21.58;79.35
22259;BME280;11298;46.034;14.496;2022-08-25T05:38:57;98212.78;;;21.68;79.95
22259;BME280;11298;46.034;14.496;2022-08-25T05:41:29;98218.81;;;21.75;79.37
22259;BME280;11298;46.034;14.496;2022-08-25T05:44:00;98218.50;;;21.82;79.17
22259;BME280;11298;46.034;14.496;2022-08-25T05:46:28;98218.44;;;21.87;79.25
22259;BME280;11298;46.034;14.496;2022-08-25T05:48:58;98219.25;;;21.92;79.34
22259;BME280;11298;46.034;14.496;2022-08-25T05:51:28;98222.75;;;22.08;78.20
22259;BME280;11298;46.034;14.496;2022-08-25T05:53:56;98224.31;;;22.19;78.12
22259;BME280;11298;46.034;14.496;2022-08-25T05:56:25;98222.84;;;22.32;78.52
22259;BME280;11298;46.034;14.496;2022-08-25T05:58:52;98227.38;;;22.52;77.33
22259;BME280;11298;46.034;14.496;2022-08-25T06:01:24;98229.34;;;22.75;76.53
22259;BME280;11298;46.034;14.496;2022-08-25T06:04:15;98235.56;;;22.91;75.20
22259;BME280;11298;46.034;14.496;2022-08-25T06:06:46;98230.56;;;22.93;74.69
22259;BME280;11298;46.034;14.496;2022-08-25T06:09:15;98231.09;;;22.95;73.98
22259;BME280;11298;46.034;14.496;2022-08-25T06:11:50;98233.00;;;22.99;73.26
22259;BME280;11298;46.034;14.496;2022-08-25T06:14:23;98223.81;;;23.04;74.32
22259;BME280;11298;46.034;14.496;2022-08-25T06:16:54;98234.78;;;23.14;73.24
22259;BME280;11298;46.034;14.496;2022-08-25T06:19:27;98227.88;;;23.12;73.02
22259;BME280;11298;46.034;14.496;2022-08-25T06:22:00;98232.91;;;23.10;72.88
22259;BME280;11298;46.034;14.496;2022-08-25T06:24:31;98232.13;;;23.04;73.23
22259;BME280;11298;46.034;14.496;2022-08-25T06:27:07;98232.56;;;22.87;74.21
22259;BME280;11298;46.034;14.496;2022-08-25T06:29:37;98235.94;;;22.84;74.67
22259;BME280;11298;46.034;14.496;2022-08-25T06:32:07;98233.09;;;22.89;74.43
22259;BME280;11298;46.034;14.496;2022-08-25T06:34:35;98226.94;;;22.97;74.76
22259;BME280;11298;46.034;14.496;2022-08-25T06:37:03;98225.69;;;23.09;73.84
22259;BME280;11298;46.034;14.496;2022-08-25T06:39:41;98221.03;;;23.28;73.02
22259;BME280;11298;46.034;14.496;2022-08-25T06:42:09;98225.31;;;23.39;72.51
22259;BME280;11298;46.034;14.496;2022-08-25T06:44:36;98223.34;;;23.63;72.13
22259;BME280;11298;46.034;14.496;2022-08-25T06:47:05;98233.06;;;23.85;71.43
22259;BME280;11298;46.034;14.496;2022-08-25T06:49:38;98231.63;;;23.87;70.11
22259;BME280;11298;46.034;14.496;2022-08-25T06:52:15;98226.13;;;24.01;69.96
22259;BME280;11298;46.034;14.496;2022-08-25T06:54:44;98235.25;;;24.25;69.32
22259;BME280;11298;46.034;14.496;2022-08-25T06:57:15;98237.88;;;24.49;69.90
22259;BME280;11298;46.034;14.496;2022-08-25T06:59:44;98236.25;;;24.62;68.44
22259;BME280;11298;46.034;14.496;2022-08-25T07:02:12;98237.44;;;24.75;66.45
22259;BME280;11298;46.034;14.496;2022-08-25T07:04:47;98239.03;;;24.62;66.35
22259;BME280;11298;46.034;14.496;2022-08-25T07:07:17;98240.00;;;24.71;66.46
22259;BME280;11298;46.034;14.496;2022-08-25T07:09:46;98246.41;;;24.85;67.45
22259;BME280;11298;46.034;14.496;2022-08-25T07:12:14;98235.91;;;24.82;65.85
22259;BME280;11298;46.034;14.496;2022-08-25T07:14:41;98241.78;;;24.81;66.45
22259;BME280;11298;46.034;14.496;2022-08-25T07:17:30;98246.06;;;24.73;67.27
22259;BME280;11298;46.034;14.496;2022-08-25T07:20:01;98247.03;;;24.82;66.60
22259;BME280;11298;46.034;14.496;2022-08-25T07:22:29;98245.94;;;24.97;66.03
22259;BME280;11298;46.034;14.496;2022-08-25T07:24:56;98240.06;;;24.98;64.76
22259;BME280;11298;46.034;14.496;2022-08-25T07:27:24;98243.66;;;24.99;64.49
22259;BME280;11298;46.034;14.496;2022-08-25T07:29:53;98241.19;;;24.97;64.93
22259;BME280;11298;46.034;14.496;2022-08-25T07:32:21;98247.66;;;24.93;64.60
22259;BME280;11298;46.034;14.496;2022-08-25T07:34:49;98246.03;;;25.05;66.31
22259;BME280;11298;46.034;14.496;2022-08-25T07:37:37;98242.88;;;25.12;64.49
22259;BME280;11298;46.034;14.496;2022-08-25T07:40:33;98233.59;;;25.03;64.56
22259;BME280;11298;46.034;14.496;2022-08-25T07:43:09;98229.78;;;25.13;64.15
22259;BME280;11298;46.034;14.496;2022-08-25T07:45:41;98224.84;;;25.37;64.63
22259;BME280;11298;46.034;14.496;2022-08-25T07:48:16;98229.16;;;25.57;63.21
22259;BME280;11298;46.034;14.496;2022-08-25T07:50:47;98224.72;;;25.83;64.48
22259;BME280;11298;46.034;14.496;2022-08-25T07:53:18;98233.94;;;26.28;61.35
22259;BME280;11298;46.034;14.496;2022-08-25T07:55:45;98234.69;;;26.87;61.90
22259;BME280;11298;46.034;14.496;2022-08-25T07:58:20;98227.69;;;26.67;57.96
22259;BME280;11298;46.034;14.496;2022-08-25T08:00:49;98230.50;;;26.76;57.27
22259;BME280;11298;46.034;14.496;2022-08-25T08:03:20;98226.63;;;26.86;58.50
22259;BME280;11298;46.034;14.496;2022-08-25T08:06:12;98222.72;;;27.18;57.14
22259;BME280;11298;46.034;14.496;2022-08-25T08:08:47;98233.00;;;27.48;56.47
22259;BME280;11298;46.034;14.496;2022-08-25T08:11:29;98229.63;;;27.77;57.06
22259;BME280;11298;46.034;14.496;2022-08-25T08:14:00;98228.69;;;27.90;53.91
22259;BME280;11298;46.034;14.496;2022-08-25T08:16:35;98231.84;;;28.41;56.17
22259;BME280;11298;46.034;14.496;2022-08-25T08:19:13;98231.13;;;28.87;53.15
22259;BME280;11298;46.034;14.496;2022-08-25T08:21:40;98236.16;;;29.11;52.58
22259;BME280;11298;46.034;14.496;2022-08-25T08:24:09;98231.47;;;29.23;51.54
22259;BME280;11298;46.034;14.496;2022-08-25T08:26:56;98226.00;;;28.89;52.82
22259;BME280;11298;46.034;14.496;2022-08-25T08:29:25;98220.22;;;29.02;50.80
22259;BME280;11298;46.034;14.496;2022-08-25T08:31:57;98227.31;;;28.91;51.61
22259;BME280;11298;46.034;14.496;2022-08-25T08:34:25;98225.56;;;28.69;52.18
22259;BME280;11298;46.034;14.496;2022-08-25T08:36:55;98220.28;;;28.68;52.61
22259;BME280;11298;46.034;14.496;2022-08-25T08:39:25;98223.22;;;28.89;53.34
22259;BME280;11298;46.034;14.496;2022-08-25T08:41:59;98225.03;;;28.85;51.83
22259;BME280;11298;46.034;14.496;2022-08-25T08:47:51;98218.00;;;27.92;53.98
22259;BME280;11298;46.034;14.496;2022-08-25T08:55:54;98213.59;;;28.00;54.94
22259;BME280;11298;46.034;14.496;2022-08-25T09:01:02;98212.28;;;27.97;53.77
22259;BME280;11298;46.034;14.496;2022-08-25T09:03:43;98210.31;;;28.07;54.25
22259;BME280;11298;46.034;14.496;2022-08-25T09:08:58;98202.56;;;27.78;54.97
22259;BME280;11298;46.034;14.496;2022-08-25T09:12:14;98192.78;;;27.49;55.28
22259;BME280;11298;46.034;14.496;2022-08-25T09:15:06;98197.63;;;27.75;54.34
22259;BME280;11298;46.034;14.496;2022-08-25T09:18:06;98192.66;;;27.54;54.86
22259;BME280;11298;46.034;14.496;2022-08-25T09:21:05;98188.91;;;27.59;56.67
22259;BME280;11298;46.034;14.496;2022-08-25T09:26:32;98184.00;;;27.82;54.29
22259;BME280;11298;46.034;14.496;2022-08-25T09:29:27;98179.56;;;28.50;55.67
22259;BME280;11298;46.034;14.496;2022-08-25T09:32:01;98180.94;;;28.90;53.88
22259;BME280;11298;46.034;14.496;2022-08-25T09:34:32;98175.78;;;29.10;52.11
22259;BME280;11298;46.034;14.496;2022-08-25T09:37:02;98180.47;;;29.26;51.91
22259;BME280;11298;46.034;14.496;2022-08-25T09:39:35;98182.44;;;29.26;53.00
22259;BME280;11298;46.034;14.496;2022-08-25T09:42:02;98183.38;;;29.39;53.39
22259;BME280;11298;46.034;14.496;2022-08-25T09:44:42;98175.75;;;29.77;49.30
22259;BME280;11298;46.034;14.496;2022-08-25T09:47:25;98168.97;;;30.20;48.84
22259;BME280;11298;46.034;14.496;2022-08-25T09:50:03;98171.09;;;30.56;48.10
22259;BME280;11298;46.034;14.496;2022-08-25T09:52:40;98163.38;;;30.20;47.66
22259;BME280;11298;46.034;14.496;2022-08-25T10:06:03;98141.06;;;29.11;51.80
22259;BME280;11298;46.034;14.496;2022-08-25T10:08:37;98132.50;;;29.45;49.55
22259;BME280;11298;46.034;14.496;2022-08-25T10:11:13;98134.28;;;29.71;48.84
22259;BME280;11298;46.034;14.496;2022-08-25T10:13:48;98124.84;;;29.54;51.11
22259;BME280;11298;46.034;14.496;2022-08-25T10:16:28;98133.16;;;29.13;49.58
22259;BME280;11298;46.034;14.496;2022-08-25T10:19:41;98132.69;;;29.11;49.97
22259;BME280;11298;46.034;14.496;2022-08-25T10:22:27;98111.31;;;29.06;49.09
22259;BME280;11298;46.034;14.496;2022-08-25T10:25:00;98117.16;;;29.22;49.76
22259;BME280;11298;46.034;14.496;2022-08-25T10:30:52;98109.00;;;29.08;50.04
22259;BME280;11298;46.034;14.496;2022-08-25T10:36:20;98103.81;;;29.48;48.85
22259;BME280;11298;46.034;14.496;2022-08-25T10:38:57;98095.22;;;29.53;48.95
22259;BME280;11298;46.034;14.496;2022-08-25T10:44:36;98098.13;;;30.19;46.97
22259;BME280;11298;46.034;14.496;2022-08-25T10:50:42;98094.56;;;30.76;45.70
22259;BME280;11298;46.034;14.496;2022-08-25T10:53:24;98085.38;;;30.55;46.03
22259;BME280;11298;46.034;14.496;2022-08-25T10:58:55;98074.31;;;29.92;46.68
22259;BME280;11298;46.034;14.496;2022-08-25T11:04:31;98072.13;;;29.98;46.51
22259;BME280;11298;46.034;14.496;2022-08-25T11:09:47;98060.50;;;29.75;47.02
22259;BME280;11298;46.034;14.496;2022-08-25T11:12:24;98059.59;;;29.62;47.77
22259;BME280;11298;46.034;14.496;2022-08-25T11:14:56;98064.53;;;29.65;48.06
22259;BME280;11298;46.034;14.496;2022-08-25T11:17:37;98056.69;;;29.92;47.39
22259;BME280;11298;46.034;14.496;2022-08-25T11:20:19;98052.00;;;30.62;49.14
22259;BME280;11298;46.034;14.496;2022-08-25T11:23:10;98050.75;;;30.72;44.95
22259;BME280;11298;46.034;14.496;2022-08-25T11:25:45;98052.44;;;30.52;44.89
22259;BME280;11298;46.034;14.496;2022-08-25T11:28:32;98048.59;;;30.44;44.79
22259;BME280;11298;46.034;14.496;2022-08-25T11:31:24;98048.06;;;30.75;44.88
22259;BME280;11298;46.034;14.496;2022-08-25T11:33:55;98040.34;;;30.96;42.96
22259;BME280;11298;46.034;14.496;2022-08-25T11:36:33;98043.75;;;31.54;44.97
22259;BME280;11298;46.034;14.496;2022-08-25T11:39:38;98047.78;;;31.81;41.06
22259;BME280;11298;46.034;14.496;2022-08-25T11:50:30;98045.78;;;32.53;38.78
22259;BME280;11298;46.034;14.496;2022-08-25T11:53:23;98044.44;;;32.19;40.80
22259;BME280;11298;46.034;14.496;2022-08-25T11:56:08;98033.84;;;31.85;41.59
22259;BME280;11298;46.034;14.496;2022-08-25T11:58:49;98037.66;;;31.92;41.57
22259;BME280;11298;46.034;14.496;2022-08-25T12:04:34;98038.19;;;32.26;38.91
22259;BME280;11298;46.034;14.496;2022-08-25T12:07:58;98028.63;;;32.43;38.62
22259;BME280;11298;46.034;14.496;2022-08-25T12:11:08;98027.38;;;32.56;38.89
22259;BME280;11298;46.034;14.496;2022-08-25T12:13:47;98028.34;;;32.48;38.96
22259;BME280;11298;46.034;14.496;2022-08-25T12:24:54;98018.09;;;31.28;41.44
22259;BME280;11298;46.034;14.496;2022-08-25T12:27:32;98019.50;;;31.74;42.55
22259;BME280;11298;46.034;14.496;2022-08-25T12:30:37;98023.09;;;32.46;41.00
22259;BME280;11298;46.034;14.496;2022-08-25T12:36:10;98017.56;;;32.34;39.34
22259;BME280;11298;46.034;14.496;2022-08-25T12:39:42;98025.16;;;32.65;39.11
22259;BME280;11298;46.034;14.496;2022-08-25T12:54:00;97995.84;;;30.83;44.14
22259;BME280;11298;46.034;14.496;2022-08-25T12:56:49;97996.63;;;31.08;43.57
22259;BME280;11298;46.034;14.496;2022-08-25T12:59:40;97996.91;;;30.78;44.05
22259;BME280;11298;46.034;14.496;2022-08-25T13:02:43;98000.59;;;30.94;44.57
22259;BME280;11298;46.034;14.496;2022-08-25T13:08:23;97990.25;;;31.35;43.59
22259;BME280;11298;46.034;14.496;2022-08-25T13:11:22;97992.31;;;30.98;43.20
22259;BME280;11298;46.034;14.496;2022-08-25T13:16:31;97985.31;;;31.44;43.38
22259;BME280;11298;46.034;14.496;2022-08-25T13:19:05;97982.41;;;31.41;42.51
22259;BME280;11298;46.034;14.496;2022-08-25T13:21:40;97976.59;;;31.61;42.13
22259;BME280;11298;46.034;14.496;2022-08-25T13:24:16;97976.59;;;31.61;42.63
22259;BME280;11298;46.034;14.496;2022-08-25T13:26:53;97981.09;;;31.50;42.53
22259;BME280;11298;46.034;14.496;2022-08-25T13:29:34;97973.81;;;31.21;43.64
22259;BME280;11298;46.034;14.496;2022-08-25T13:32:12;97966.94;;;30.94;44.27
22259;BME280;11298;46.034;14.496;2022-08-25T13:34:41;97966.00;;;31.03;44.07
22259;BME280;11298;46.034;14.496;2022-08-25T13:37:18;97969.44;;;30.59;44.52
22259;BME280;11298;46.034;14.496;2022-08-25T13:40:28;97962.88;;;30.07;45.18
22259;BME280;11298;46.034;14.496;2022-08-25T13:43:06;97955.28;;;30.31;43.66
22259;BME280;11298;46.034;14.496;2022-08-25T13:45:46;97959.47;;;30.25;43.46
22259;BME280;11298;46.034;14.496;2022-08-25T13:48:38;97949.81;;;30.47;43.63
22259;BME280;11298;46.034;14.496;2022-08-25T13:51:23;97950.56;;;31.09;41.14
22259;BME280;11298;46.034;14.496;2022-08-25T13:54:07;97952.13;;;31.74;40.41
22259;BME280;11298;46.034;14.496;2022-08-25T13:56:40;97949.31;;;31.90;41.30
22259;BME280;11298;46.034;14.496;2022-08-25T13:59:23;97964.50;;;32.17;39.53
22259;BME280;11298;46.034;14.496;2022-08-25T14:01:53;97952.06;;;32.18;40.17
22259;BME280;11298;46.034;14.496;2022-08-25T14:04:26;97939.94;;;32.29;38.58
22259;BME280;11298;46.034;14.496;2022-08-25T14:07:11;97948.88;;;31.88;40.22
22259;BME280;11298;46.034;14.496;2022-08-25T14:09:56;97945.63;;;31.86;37.81
22259;BME280;11298;46.034;14.496;2022-08-25T14:12:40;97937.97;;;31.71;37.77
22259;BME280;11298;46.034;14.496;2022-08-25T14:18:00;97922.72;;;32.47;37.57
22259;BME280;11298;46.034;14.496;2022-08-25T14:20:30;97932.72;;;32.63;36.69
22259;BME280;11298;46.034;14.496;2022-08-25T14:23:06;97931.91;;;32.63;36.85
22259;BME280;11298;46.034;14.496;2022-08-25T14:25:38;97928.59;;;32.57;37.66
22259;BME280;11298;46.034;14.496;2022-08-25T14:28:14;97927.59;;;32.50;38.29
22259;BME280;11298;46.034;14.496;2022-08-25T14:30:52;97925.56;;;32.66;38.51
22259;BME280;11298;46.034;14.496;2022-08-25T14:33:27;97921.75;;;32.74;38.23
22259;BME280;11298;46.034;14.496;2022-08-25T14:35:59;97917.19;;;32.50;36.46
22259;BME280;11298;46.034;14.496;2022-08-25T14:38:32;97917.31;;;32.22;37.28
22259;BME280;11298;46.034;14.496;2022-08-25T14:41:09;97918.63;;;31.81;39.06
22259;BME280;11298;46.034;14.496;2022-08-25T14:43:37;97915.81;;;31.81;38.70
22259;BME280;11298;46.034;14.496;2022-08-25T14:46:17;97902.69;;;31.57;39.58
22259;BME280;11298;46.034;14.496;2022-08-25T14:49:07;97912.94;;;31.65;39.72
22259;BME280;11298;46.034;14.496;2022-08-25T14:51:39;97914.91;;;31.77;39.57
22259;BME280;11298;46.034;14.496;2022-08-25T14:54:13;97910.81;;;31.75;40.26
22259;BME280;11298;46.034;14.496;2022-08-25T14:56:50;97908.81;;;31.75;39.73
22259;BME280;11298;46.034;14.496;2022-08-25T14:59:18;97909.41;;;31.53;39.97
22259;BME280;11298;46.034;14.496;2022-08-25T15:01:48;97910.63;;;31.55;40.32
22259;BME280;11298;46.034;14.496;2022-08-25T15:04:22;97909.44;;;31.41;41.12
22259;BME280;11298;46.034;14.496;2022-08-25T15:06:59;97905.56;;;31.45;40.98